»·PEaware :: N557FG KSLC-KDTA

N557FG :: KSLC-KDTA

FLIGHT INFORMATION

Flight Status: Arrived
Operator: Privately registered:
United States
More flights under this callsign
Pilot: Ian W. (8444)
Aircraft: CESSNA 182 SKYLANE
(C182)
More flights by this aircraft type
Origin: KSLC Salt Lake City Intl
United States
Destination: KDTA Delta Mun
United States
More flights between these airports :: More routes between these airports
Route: +SLC3 FFU V21 DTA
File this flight plan on PilotEdge
Remarks:
Altitude:
(Current/Filed)
11,000ft
Speed:
(Current/Filed)
140kts
Departed: 13-Jan-17 03:20 PM
Arrived: 13-Jan-17 04:29 PM
Distance/Time
Traveled:
88nm/1:09
Distance/Time
To Go:
Arrived

Flight Plot

Page will automatically refresh every two minutes.

Flight plan parsing failed; only flown route is shown


Map Options




Map Legend


Flown Route
Filed Route
Departure Airport
Arrival Airport
Navaid (VOR, NDB)
Fix

Horizontal Profiles

Position Reports

Time Latitude Longitude Heading Altitude Ground
Speed
13-Jan-17 14:59 40.776337 -111.959007 265 4230ft 0kts
13-Jan-17 15:00 40.776337 -111.959008 265 4230ft 0kts
13-Jan-17 15:01 40.776337 -111.959011 265 4230ft 0kts
13-Jan-17 15:02 40.776336 -111.959014 265 4230ft 0kts
13-Jan-17 15:03 40.776336 -111.959018 265 4230ft 0kts
13-Jan-17 15:04 40.776336 -111.959022 265 4230ft 0kts
13-Jan-17 15:05 40.776336 -111.959026 265 4230ft 0kts
13-Jan-17 15:06 40.776335 -111.959029 265 4230ft 0kts
13-Jan-17 15:07 40.776335 -111.959033 265 4230ft 0kts
13-Jan-17 15:08 40.776335 -111.959037 265 4230ft 0kts
13-Jan-17 15:09 40.776335 -111.959041 265 4230ft 0kts
13-Jan-17 15:10 40.776334 -111.959044 265 4230ft 0kts
13-Jan-17 15:11 40.776334 -111.959048 265 4230ft 0kts
13-Jan-17 15:12 40.776334 -111.959057 265 4230ft 0kts
13-Jan-17 15:13 40.776333 -111.959066 265 4230ft 0kts
13-Jan-17 15:14 40.776333 -111.959075 264 4230ft 0kts
13-Jan-17 15:15 40.776332 -111.959084 264 4230ft 0kts
13-Jan-17 15:16 40.776331 -111.959094 264 4230ft 0kts
13-Jan-17 15:17 40.776331 -111.959103 264 4230ft 0kts
13-Jan-17 15:18 40.773184 -111.960610 178 4230ft 12kts
13-Jan-17 15:19 40.772695 -111.961134 263 4230ft 4kts
13-Jan-17 15:20 40.785576 -111.961859 2 4492ft 82kts
13-Jan-17 15:21 40.798672 -111.979886 268 5421ft 85kts
13-Jan-17 15:22 40.800445 -112.013024 266 6182ft 95kts
13-Jan-17 15:23 40.799931 -112.048800 267 6870ft 97kts
13-Jan-17 15:24 40.803089 -112.083615 275 7563ft 94kts
13-Jan-17 15:25 40.806439 -112.118025 272 8173ft 95kts
13-Jan-17 15:26 40.808654 -112.152689 268 8760ft 95kts
13-Jan-17 15:27 40.811685 -112.187463 273 9325ft 94kts
13-Jan-17 15:28 40.814488 -112.221336 270 9842ft 92kts
13-Jan-17 15:29 40.805455 -112.243880 160 10251ft 102kts
13-Jan-17 15:30 40.782548 -112.224071 151 10763ft 99kts
13-Jan-17 15:31 40.757828 -112.206590 168 11068ft 114kts
13-Jan-17 15:32 40.724709 -112.191665 152 11018ft 137kts
13-Jan-17 15:33 40.692328 -112.170701 174 11012ft 128kts
13-Jan-17 15:34 40.657710 -112.155801 162 10902ft 129kts
13-Jan-17 15:35 40.625379 -112.135708 162 10980ft 126kts
13-Jan-17 15:36 40.593417 -112.113195 164 11069ft 129kts
13-Jan-17 15:37 40.580230 -112.105614 162 11102ft 132kts
13-Jan-17 15:38 40.549441 -112.081386 155 11149ft 141kts
13-Jan-17 15:39 40.514643 -112.061173 163 11189ft 137kts
13-Jan-17 15:40 40.477399 -112.045457 165 11029ft 137kts
13-Jan-17 15:41 40.441933 -112.026688 164 11031ft 134kts
13-Jan-17 15:42 40.407336 -112.007857 171 11063ft 133kts
13-Jan-17 15:43 40.371672 -111.996683 161 11068ft 133kts
13-Jan-17 15:44 40.337787 -111.974463 168 11000ft 135kts
13-Jan-17 15:45 40.302492 -111.958604 154 10987ft 136kts
13-Jan-17 15:46 40.269446 -111.935131 165 11026ft 130kts
13-Jan-17 15:47 40.238296 -111.948508 210 11137ft 118kts
13-Jan-17 15:48 40.209590 -111.971546 219 11094ft 124kts
13-Jan-17 15:49 40.181005 -111.996699 207 11041ft 126kts
13-Jan-17 15:50 40.149506 -112.015563 210 11044ft 123kts
13-Jan-17 15:51 40.118703 -112.036118 206 11011ft 124kts
13-Jan-17 15:52 40.086440 -112.052663 204 10975ft 124kts
13-Jan-17 15:53 40.055123 -112.071533 210 10941ft 123kts
13-Jan-17 15:54 40.023801 -112.090570 209 10946ft 121kts
13-Jan-17 15:55 39.993562 -112.110798 185 11000ft 117kts
13-Jan-17 15:56 39.963440 -112.120817 207 11206ft 110kts
13-Jan-17 15:57 39.933328 -112.137385 207 11157ft 122kts
13-Jan-17 15:58 39.903201 -112.157715 209 11161ft 121kts
13-Jan-17 15:59 39.871871 -112.177495 207 11034ft 128kts
13-Jan-17 16:00 39.840054 -112.196839 207 11054ft 125kts
13-Jan-17 16:01 39.807610 -112.214058 208 11047ft 126kts
13-Jan-17 16:02 39.777443 -112.236652 215 11054ft 125kts
13-Jan-17 16:03 39.746814 -112.258074 204 11056ft 126kts
13-Jan-17 16:04 39.713864 -112.274036 204 11056ft 126kts
13-Jan-17 16:05 39.680605 -112.289624 202 11052ft 127kts
13-Jan-17 16:06 39.647627 -112.305791 206 11050ft 126kts
13-Jan-17 16:07 39.615014 -112.323112 203 11033ft 127kts
13-Jan-17 16:08 39.583375 -112.342746 208 11031ft 126kts
13-Jan-17 16:09 39.552327 -112.364099 212 11023ft 125kts
13-Jan-17 16:10 39.520997 -112.384411 203 11015ft 127kts
13-Jan-17 16:11 39.486859 -112.398348 197 10885ft 136kts
13-Jan-17 16:12 39.450444 -112.417580 213 10384ft 144kts
13-Jan-17 16:13 39.415112 -112.444855 204 9773ft 150kts
13-Jan-17 16:14 39.375242 -112.461563 195 9190ft 152kts
13-Jan-17 16:15 39.337630 -112.481701 213 8922ft 142kts
13-Jan-17 16:16 39.309803 -112.499953 206 9069ft 129kts
13-Jan-17 16:17 39.277242 -112.520897 203 8777ft 133kts
13-Jan-17 16:18 39.239572 -112.546793 210 8106ft 131kts
13-Jan-17 16:19 39.214028 -112.567587 227 7593ft 131kts
13-Jan-17 16:20 39.199260 -112.614919 226 7325ft 104kts
13-Jan-17 16:21 39.184670 -112.595995 72 7582ft 116kts
13-Jan-17 16:22 39.201607 -112.558185 50 7653ft 124kts
13-Jan-17 16:23 39.224078 -112.525561 45 7446ft 113kts
13-Jan-17 16:24 39.256594 -112.513391 3 6469ft 124kts
13-Jan-17 16:25 39.286371 -112.506307 6 6601ft 103kts
13-Jan-17 16:26 39.316210 -112.504066 7 6129ft 109kts
13-Jan-17 16:27 39.341628 -112.501925 2 5301ft 107kts
13-Jan-17 16:28 39.372369 -112.502196 1 4921ft 86kts
13-Jan-17 16:29 39.384694 -112.502245 3 4762ft 15kts
13-Jan-17 16:30 39.390299 -112.502144 359 4762ft 21kts
13-Jan-17 16:31 39.388131 -112.505282 217 4762ft 26kts
13-Jan-17 16:32 39.383861 -112.510166 309 4762ft 9kts
13-Jan-17 16:33 39.385275 -112.510962 45 4762ft 0kts
13-Jan-17 16:34 39.385275 -112.510961 45 4762ft 0kts
13-Jan-17 16:35 39.385275 -112.510961 45 4762ft 0kts
13-Jan-17 16:36 39.385275 -112.510961 45 4762ft 0kts
13-Jan-17 16:37 39.385275 -112.510961 45 4762ft 0kts
13-Jan-17 16:38 39.385275 -112.510961 45 4762ft 0kts
13-Jan-17 16:39 39.385275 -112.510961 45 4762ft 0kts
13-Jan-17 16:40 39.385275 -112.510961 45 4762ft 0kts
13-Jan-17 16:41 39.385275 -112.510961 45 4762ft 0kts
13-Jan-17 16:42 39.385275 -112.510961 45 4762ft 0kts
13-Jan-17 16:43 39.385275 -112.510961 45 4762ft 0kts

Navigation Log

Ident Type
Flight plan parsing failed, navigation log unavailable